Time;durP1;ratioP1;P1;durP2;ratioP2;P2;SDS_P1;SDS_P2;PMS_P1;PMS_P2;Temp;Humidity;BMP_temperature;BMP_pressure;BME280_temperature;BME280_humidity;BME280_pressure;Samples;Min_cycle;Max_cycle;Signal;HPM_P1;HPM_P2
2021/10/22 00:01:05;;;;;;;4.80;4.17;;;11.00;99.90;;;;;;5051272;28;20437;-66
2021/10/22 00:03:31;;;;;;;7.97;4.33;;;10.90;99.90;;;;;;5051691;28;20494;-65
2021/10/22 00:05:57;;;;;;;11.67;4.37;;;10.90;99.90;;;;;;5051878;28;20539;-65
2021/10/22 00:08:25;;;;;;;9.53;4.03;;;11.00;99.90;;;;;;5051312;28;20187;-66
2021/10/22 00:10:51;;;;;;;9.07;4.57;;;11.00;99.90;;;;;;5051684;28;20528;-66
2021/10/22 00:13:17;;;;;;;10.97;4.00;;;11.00;99.90;;;;;;5050986;28;20433;-65
2021/10/22 00:15:43;;;;;;;6.30;4.10;;;11.00;99.90;;;;;;5051991;28;20430;-66
2021/10/22 00:18:09;;;;;;;6.93;4.23;;;11.00;99.90;;;;;;5051069;28;20899;-66
2021/10/22 00:20:34;;;;;;;5.90;3.93;;;11.10;99.90;;;;;;5051692;28;20192;-66
2021/10/22 00:23:00;;;;;;;10.93;3.97;;;11.10;99.90;;;;;;5051466;28;20279;-71
2021/10/22 00:25:26;;;;;;;8.33;3.90;;;11.10;99.90;;;;;;5051576;28;20734;-65
2021/10/22 00:27:52;;;;;;;9.67;4.23;;;11.20;99.90;;;;;;5051704;28;20656;-66
2021/10/22 00:30:17;;;;;;;7.27;4.57;;;11.20;99.90;;;;;;5050908;28;20212;-66
2021/10/22 00:32:43;;;;;;;11.30;4.30;;;11.20;99.90;;;;;;5052046;28;20570;-65
2021/10/22 00:35:09;;;;;;;8.43;3.90;;;11.10;99.90;;;;;;5050734;28;20174;-66
2021/10/22 00:37:36;;;;;;;8.33;4.17;;;11.10;99.90;;;;;;5051528;28;20185;-66
2021/10/22 00:40:03;;;;;;;10.23;4.80;;;11.10;99.90;;;;;;5051234;28;20459;-72
2021/10/22 00:42:29;;;;;;;6.70;4.13;;;11.20;99.90;;;;;;5051624;28;20408;-66
2021/10/22 00:44:54;;;;;;;7.97;3.80;;;11.20;99.90;;;;;;5051600;28;20984;-66
2021/10/22 00:47:20;;;;;;;10.73;3.70;;;11.20;99.90;;;;;;5032802;28;20247;-66
2021/10/22 00:49:46;;;;;;;5.87;3.70;;;11.20;99.90;;;;;;5050352;28;20171;-66
2021/10/22 00:52:15;;;;;;;5.63;4.13;;;11.20;99.90;;;;;;5050670;28;20509;-66
2021/10/22 00:54:41;;;;;;;8.07;3.70;;;11.20;99.90;;;;;;5051863;28;20516;-66
2021/10/22 00:57:12;;;;;;;5.90;3.40;;;11.20;99.90;;;;;;5050835;28;20485;-66
2021/10/22 00:59:38;;;;;;;9.93;3.60;;;11.20;99.90;;;;;;5052348;28;20460;-66
2021/10/22 01:02:03;;;;;;;14.30;4.00;;;11.20;99.90;;;;;;5054538;28;20507;-70
2021/10/22 01:04:29;;;;;;;6.10;3.53;;;11.20;99.90;;;;;;5054995;28;20184;-65
2021/10/22 01:06:56;;;;;;;4.73;3.47;;;11.20;99.90;;;;;;5054778;28;20196;-66
2021/10/22 01:09:22;;;;;;;11.57;4.37;;;11.20;99.90;;;;;;5054000;28;20499;-65
2021/10/22 01:11:49;;;;;;;5.20;3.40;;;11.20;99.90;;;;;;5054639;28;20494;-65
2021/10/22 01:14:16;;;;;;;6.20;3.57;;;11.20;99.90;;;;;;5054041;28;21000;-65
2021/10/22 01:16:42;;;;;;;6.10;3.07;;;11.30;99.90;;;;;;5054717;28;20432;-65
2021/10/22 01:19:13;;;;;;;5.53;3.20;;;11.10;99.90;;;;;;5054052;28;20414;-65
2021/10/22 01:21:40;;;;;;;12.00;3.80;;;11.10;99.90;;;;;;5054697;28;20275;-65
2021/10/22 01:24:06;;;;;;;7.00;4.37;;;11.10;99.90;;;;;;5054183;28;20434;-70
2021/10/22 01:26:31;;;;;;;7.83;4.03;;;11.20;99.90;;;;;;5054087;28;20466;-65
2021/10/22 01:28:59;;;;;;;6.90;4.30;;;11.20;99.90;;;;;;5054743;28;20525;-65
2021/10/22 01:31:26;;;;;;;5.87;4.00;;;11.20;99.90;;;;;;5053717;28;20209;-66
2021/10/22 01:33:53;;;;;;;6.10;4.20;;;11.20;99.90;;;;;;5054584;28;20419;-65
2021/10/22 01:36:19;;;;;;;5.27;4.33;;;11.20;99.90;;;;;;5053625;28;20426;-66
2021/10/22 01:38:46;;;;;;;6.17;4.27;;;11.20;99.90;;;;;;5054486;28;20495;-66
2021/10/22 01:41:13;;;;;;;8.20;4.03;;;11.20;99.90;;;;;;5053333;28;20492;-66
2021/10/22 01:43:41;;;;;;;7.57;3.63;;;11.30;99.90;;;;;;5053306;28;20995;-66
2021/10/22 01:46:07;;;;;;;15.93;3.83;;;11.20;99.90;;;;;;5053407;28;20751;-72
2021/10/22 01:48:33;;;;;;;6.83;3.47;;;11.30;99.90;;;;;;5054435;28;20422;-66
2021/10/22 01:50:58;;;;;;;8.77;4.70;;;11.30;99.90;;;;;;5053904;28;20493;-65
2021/10/22 01:53:24;;;;;;;5.47;4.10;;;11.20;99.90;;;;;;5053384;28;20485;-66
2021/10/22 01:55:51;;;;;;;5.73;3.20;;;11.10;99.90;;;;;;5053847;28;20202;-66
2021/10/22 01:58:17;;;;;;;6.23;3.07;;;11.10;99.90;;;;;;5053015;28;20188;-66
2021/10/22 02:00:44;;;;;;;9.07;3.47;;;11.20;99.90;;;;;;5054198;28;20416;-66
2021/10/22 02:03:09;;;;;;;8.33;4.30;;;11.00;99.90;;;;;;5053073;28;20439;-66
2021/10/22 02:05:35;;;;;;;5.93;3.00;;;11.00;99.90;;;;;;5053980;28;20884;-66
2021/10/22 02:08:01;;;;;;;3.63;2.87;;;11.00;99.90;;;;;;5054070;28;20175;-65
2021/10/22 02:10:27;;;;;;;5.60;3.20;;;11.00;99.90;;;;;;5052364;28;20853;-66
2021/10/22 02:12:52;;;;;;;3.30;3.00;;;11.10;99.90;;;;;;5053980;28;20211;-65
2021/10/22 02:15:18;;;;;;;6.67;3.40;;;11.00;99.90;;;;;;5052858;28;20447;-66
2021/10/22 02:17:44;;;;;;;8.33;2.97;;;11.00;99.90;;;;;;5052316;28;20193;-66
2021/10/22 02:20:10;;;;;;;10.23;3.43;;;11.00;99.90;;;;;;5052887;28;20184;-68
2021/10/22 02:22:36;;;;;;;6.93;3.43;;;11.00;99.90;;;;;;5053709;28;20176;-65
2021/10/22 02:25:03;;;;;;;3.53;3.00;;;11.00;99.90;;;;;;5053186;28;20480;-66
2021/10/22 02:27:28;;;;;;;8.67;3.60;;;11.10;99.90;;;;;;5052365;28;20544;-65
2021/10/22 02:29:54;;;;;;;8.30;3.70;;;10.90;99.90;;;;;;5053440;28;20418;-66
2021/10/22 02:32:20;;;;;;;6.50;3.60;;;10.90;99.90;;;;;;5053059;28;20216;-66
2021/10/22 02:34:45;;;;;;;4.17;3.53;;;11.00;99.90;;;;;;5053172;28;20174;-66
2021/10/22 02:37:12;;;;;;;7.33;4.40;;;11.00;99.90;;;;;;5052226;28;20267;-66
2021/10/22 02:39:39;;;;;;;6.53;3.13;;;11.00;99.90;;;;;;5053023;28;20263;-66
2021/10/22 02:42:05;;;;;;;3.53;3.20;;;11.00;99.90;;;;;;5053336;28;20416;-65
2021/10/22 02:44:31;;;;;;;4.50;2.93;;;11.10;99.90;;;;;;5051000;28;20459;-65
2021/10/22 02:46:57;;;;;;;4.87;3.30;;;11.10;99.90;;;;;;5052170;28;20433;-66
2021/10/22 02:49:23;;;;;;;5.17;3.50;;;11.10;99.90;;;;;;5052271;28;20676;-65
2021/10/22 02:51:49;;;;;;;6.60;3.30;;;11.10;99.90;;;;;;5052893;28;20455;-65
2021/10/22 02:54:15;;;;;;;4.90;3.13;;;11.10;99.90;;;;;;5052106;28;20258;-66
2021/10/22 02:56:40;;;;;;;5.10;3.40;;;11.00;99.90;;;;;;5053145;28;20261;-66
2021/10/22 02:59:06;;;;;;;8.07;3.47;;;11.00;99.90;;;;;;5051819;28;20408;-66
2021/10/22 03:01:32;;;;;;;7.77;3.87;;;10.90;99.90;;;;;;5052483;28;20609;-66
2021/10/22 03:03:58;;;;;;;4.70;3.40;;;11.00;99.90;;;;;;5052938;28;20502;-66
2021/10/22 03:06:25;;;;;;;8.03;3.67;;;11.00;99.90;;;;;;5051949;28;20410;-66
2021/10/22 03:08:51;;;;;;;5.70;3.93;;;10.90;99.90;;;;;;5052776;28;20183;-66
2021/10/22 03:11:17;;;;;;;7.13;3.97;;;10.80;99.90;;;;;;5051586;28;20464;-66
2021/10/22 03:13:42;;;;;;;9.03;3.70;;;10.90;99.90;;;;;;5052482;28;20696;-66
2021/10/22 03:16:08;;;;;;;8.50;4.07;;;10.80;99.90;;;;;;5052673;28;20424;-68
2021/10/22 03:18:34;;;;;;;5.93;3.80;;;10.80;99.80;;;;;;5052363;28;20185;-66
2021/10/22 03:21:00;;;;;;;4.70;4.23;;;10.80;99.60;;;;;;5052686;28;20504;-66
2021/10/22 03:23:25;;;;;;;4.63;3.70;;;10.70;99.70;;;;;;5051176;28;20173;-66
2021/10/22 03:25:52;;;;;;;5.90;4.00;;;10.60;99.60;;;;;;5052504;28;20584;-66
2021/10/22 03:28:18;;;;;;;5.83;4.20;;;10.70;99.60;;;;;;5051865;28;20183;-66
2021/10/22 03:30:44;;;;;;;6.33;5.57;;;10.60;99.80;;;;;;5051997;28;20448;-66
2021/10/22 03:33:09;;;;;;;10.73;4.70;;;10.60;99.90;;;;;;5052079;28;20178;-71
2021/10/22 03:35:35;;;;;;;7.70;3.97;;;10.50;99.70;;;;;;5051475;28;20299;-67
2021/10/22 03:38:01;;;;;;;9.80;4.33;;;10.50;99.70;;;;;;5052146;28;20176;-66
2021/10/22 03:40:27;;;;;;;5.00;3.97;;;10.50;99.90;;;;;;5051790;28;20180;-66
2021/10/22 03:42:56;;;;;;;3.97;3.67;;;10.40;99.80;;;;;;5052140;28;20504;-67
2021/10/22 03:45:22;;;;;;;4.00;3.70;;;10.40;99.60;;;;;;5051982;28;20471;-67
2021/10/22 03:47:49;;;;;;;6.70;3.87;;;10.40;99.60;;;;;;5052220;28;20452;-66
2021/10/22 03:50:17;;;;;;;5.97;3.53;;;10.30;99.70;;;;;;5051848;28;20454;-66
2021/10/22 03:52:44;;;;;;;5.13;4.03;;;10.30;99.90;;;;;;5052429;28;20998;-67
2021/10/22 03:55:10;;;;;;;9.13;3.37;;;10.30;99.60;;;;;;5052622;28;20809;-66
2021/10/22 03:57:36;;;;;;;3.80;3.60;;;10.20;99.60;;;;;;5052186;28;20406;-67
2021/10/22 04:00:05;;;;;;;8.93;3.93;;;10.20;99.60;;;;;;5052441;28;20762;-66
2021/10/22 04:02:31;;;;;;;5.77;3.73;;;10.20;99.40;;;;;;5051851;28;20483;-66
2021/10/22 04:04:57;;;;;;;5.00;3.30;;;10.10;99.80;;;;;;5052160;28;20436;-67
2021/10/22 04:07:22;;;;;;;6.07;3.77;;;10.10;99.80;;;;;;5051480;28;20188;-67
2021/10/22 04:09:48;;;;;;;7.60;3.37;;;10.00;99.40;;;;;;5052096;28;20777;-67
2021/10/22 04:12:14;;;;;;;6.57;3.07;;;10.20;99.40;;;;;;5051728;28;20870;-66
2021/10/22 04:14:40;;;;;;;5.43;2.60;;;10.10;99.40;;;;;;5052053;28;20425;-67
2021/10/22 04:17:06;;;;;;;4.37;2.93;;;10.00;99.10;;;;;;5052372;28;20183;-67
2021/10/22 04:19:32;;;;;;;5.53;3.40;;;10.00;99.90;;;;;;5051694;28;20739;-67
2021/10/22 04:21:57;;;;;;;6.73;3.70;;;10.00;99.50;;;;;;5051974;28;20192;-67
2021/10/22 04:24:24;;;;;;;4.73;3.63;;;10.00;98.90;;;;;;5051895;28;20956;-67
2021/10/22 04:26:50;;;;;;;11.10;4.13;;;10.10;98.60;;;;;;5052239;28;20176;-67
2021/10/22 04:29:16;;;;;;;5.47;3.47;;;10.00;98.90;;;;;;5051937;28;20430;-67
2021/10/22 04:31:42;;;;;;;7.20;4.00;;;10.00;98.30;;;;;;5051773;28;21031;-67
2021/10/22 04:34:08;;;;;;;4.33;3.37;;;10.10;99.90;;;;;;5049173;28;20512;-67
2021/10/22 04:36:36;;;;;;;3.80;3.53;;;10.10;98.60;;;;;;5052811;28;20318;-67
2021/10/22 04:41:47;;;;;;;3.70;3.30;;;10.00;98.60;;;;;;5056161;28;20411;-67
2021/10/22 04:44:14;;;;;;;7.60;3.20;;;10.00;98.20;;;;;;5054973;28;20501;-67
2021/10/22 04:46:40;;;;;;;4.70;3.00;;;10.00;98.00;;;;;;5053697;28;20187;-67
2021/10/22 04:49:06;;;;;;;6.87;3.60;;;10.00;97.90;;;;;;5055487;28;20422;-67
2021/10/22 04:51:31;;;;;;;4.30;3.30;;;9.90;99.00;;;;;;5054603;28;20287;-67
2021/10/22 04:53:57;;;;;;;11.90;4.70;;;9.90;98.80;;;;;;5053597;28;20259;-67
2021/10/22 04:56:23;;;;;;;5.70;3.40;;;10.00;98.10;;;;;;5054438;28;20179;-67
2021/10/22 04:58:49;;;;;;;6.87;3.87;;;10.00;98.20;;;;;;5055235;28;20174;-67
2021/10/22 05:01:14;;;;;;;4.93;4.20;;;10.00;98.10;;;;;;5054751;28;20179;-71
2021/10/22 05:03:40;;;;;;;6.70;3.30;;;9.90;98.70;;;;;;5054681;28;20188;-67
2021/10/22 05:06:06;;;;;;;6.10;3.63;;;10.00;98.20;;;;;;5055146;28;20507;-67
2021/10/22 05:08:32;;;;;;;6.10;3.40;;;10.00;98.00;;;;;;5054314;28;20437;-67
2021/10/22 05:10:58;;;;;;;7.67;3.30;;;9.90;98.60;;;;;;5053644;28;20211;-67
2021/10/22 05:13:23;;;;;;;13.10;5.77;;;10.00;98.00;;;;;;5054485;28;20193;-67
2021/10/22 05:15:49;;;;;;;7.53;3.30;;;9.90;99.00;;;;;;5053472;28;20905;-67
2021/10/22 05:18:16;;;;;;;5.53;4.00;;;9.90;98.70;;;;;;5054827;28;20260;-70
2021/10/22 05:20:41;;;;;;;10.10;3.67;;;9.90;98.60;;;;;;5054073;28;20409;-67
2021/10/22 05:23:08;;;;;;;7.57;5.30;;;9.90;99.00;;;;;;5037074;28;20916;-67
2021/10/22 05:25:34;;;;;;;6.57;3.57;;;9.90;98.70;;;;;;5053327;28;20177;-67
2021/10/22 05:28:00;;;;;;;5.97;3.30;;;10.00;97.90;;;;;;5054643;28;20430;-67
2021/10/22 05:30:26;;;;;;;4.67;3.00;;;10.00;98.10;;;;;;5053406;28;20639;-67
2021/10/22 05:32:51;;;;;;;6.97;4.27;;;9.90;98.70;;;;;;5053955;28;20524;-67
2021/10/22 05:35:17;;;;;;;4.60;3.13;;;9.90;98.80;;;;;;5053810;28;20174;-71
2021/10/22 05:37:43;;;;;;;9.30;3.33;;;10.00;98.50;;;;;;5054305;28;20190;-66
2021/10/22 05:40:09;;;;;;;5.77;3.60;;;10.00;98.30;;;;;;5053229;28;20187;-67
2021/10/22 05:42:35;;;;;;;7.27;3.20;;;10.00;98.50;;;;;;5053701;28;20260;-67
2021/10/22 05:45:01;;;;;;;10.53;3.10;;;10.00;98.10;;;;;;5052139;28;20893;-67
2021/10/22 05:47:27;;;;;;;6.87;3.13;;;10.00;97.70;;;;;;5052207;28;20446;-67
2021/10/22 05:49:53;;;;;;;6.10;3.30;;;10.00;98.20;;;;;;5053371;28;20761;-68
2021/10/22 05:52:18;;;;;;;5.23;2.90;;;10.00;98.00;;;;;;5052405;28;20183;-68
2021/10/22 05:54:44;;;;;;;8.70;3.30;;;10.10;97.80;;;;;;5054587;28;20242;-68
2021/10/22 05:57:10;;;;;;;8.33;4.50;;;10.00;97.90;;;;;;5054625;28;20172;-68
2021/10/22 05:59:36;;;;;;;5.30;3.53;;;10.00;97.80;;;;;;5052401;28;20434;-68
2021/10/22 06:02:02;;;;;;;5.07;4.00;;;10.00;97.70;;;;;;5052853;28;20239;-68
2021/10/22 06:04:28;;;;;;;4.33;3.20;;;10.00;97.80;;;;;;5053566;28;20171;-68
2021/10/22 06:06:54;;;;;;;6.83;4.03;;;10.00;98.30;;;;;;5053186;28;20572;-68
2021/10/22 06:09:19;;;;;;;5.80;3.70;;;10.00;98.30;;;;;;5053675;28;20559;-69
2021/10/22 06:11:48;;;;;;;7.70;4.27;;;10.00;97.70;;;;;;5054128;28;20256;-68
2021/10/22 06:14:15;;;;;;;6.00;4.00;;;10.00;97.60;;;;;;5053977;28;20481;-68
2021/10/22 06:16:41;;;;;;;12.40;4.17;;;10.00;97.70;;;;;;5053299;28;20426;-68
2021/10/22 06:19:06;;;;;;;4.50;3.80;;;10.00;98.10;;;;;;5053876;28;20526;-68
2021/10/22 06:24:10;;;;;;;5.00;3.73;;;10.10;98.50;;;;;;5053717;28;20170;-68
2021/10/22 06:26:40;;;;;;;9.00;4.17;;;10.10;98.60;;;;;;5053154;28;20421;-67
2021/10/22 06:29:07;;;;;;;6.53;3.43;;;10.10;98.00;;;;;;5053768;28;20411;-68
2021/10/22 06:31:36;;;;;;;3.90;3.50;;;10.10;97.90;;;;;;5053187;28;20501;-67
2021/10/22 06:34:03;;;;;;;4.17;3.00;;;10.10;98.20;;;;;;5053819;28;20414;-67
2021/10/22 06:36:28;;;;;;;6.83;3.63;;;10.10;98.30;;;;;;5052895;28;20513;-68
2021/10/22 06:38:54;;;;;;;7.03;3.30;;;10.10;98.20;;;;;;5053700;28;20510;-67
2021/10/22 06:41:20;;;;;;;7.10;4.23;;;10.10;97.60;;;;;;5053103;28;20698;-71
2021/10/22 06:43:46;;;;;;;5.83;3.53;;;10.10;98.00;;;;;;5053310;28;20423;-68
2021/10/22 06:46:13;;;;;;;5.53;3.50;;;10.10;97.80;;;;;;5053520;28;20166;-68
2021/10/22 06:48:40;;;;;;;6.07;4.40;;;10.00;97.80;;;;;;5052859;28;20418;-68
2021/10/22 06:51:08;;;;;;;8.07;3.57;;;10.00;97.70;;;;;;5052864;28;20950;-67
2021/10/22 06:53:38;;;;;;;4.97;3.60;;;10.10;97.60;;;;;;5052506;28;20491;-67
2021/10/22 06:56:06;;;;;;;5.23;3.70;;;10.10;97.80;;;;;;5053422;28;20421;-67
2021/10/22 06:58:32;;;;;;;5.00;3.23;;;10.00;97.90;;;;;;5051665;28;20504;-68
2021/10/22 07:00:59;;;;;;;6.90;3.60;;;10.00;97.90;;;;;;5052688;28;20420;-68
2021/10/22 07:03:27;;;;;;;8.50;4.10;;;9.90;98.60;;;;;;5051438;28;20970;-68
2021/10/22 07:08:23;;;;;;;6.60;4.40;;;9.90;98.40;;;;;;5052287;28;20437;-69
2021/10/22 07:10:49;;;;;;;4.53;4.13;;;9.90;98.80;;;;;;5051610;28;20450;-68
2021/10/22 07:13:15;;;;;;;7.60;3.80;;;10.00;98.40;;;;;;5053126;28;20507;-67
2021/10/22 07:15:41;;;;;;;13.30;4.20;;;10.10;99.00;;;;;;5052443;28;20955;-68
2021/10/22 07:18:07;;;;;;;7.93;4.47;;;10.00;99.10;;;;;;5052895;28;20422;-68
2021/10/22 07:20:34;;;;;;;8.60;4.30;;;10.00;99.10;;;;;;5051858;28;20946;-68
2021/10/22 07:23:06;;;;;;;5.37;4.10;;;10.10;98.80;;;;;;5052914;28;20414;-68
2021/10/22 07:25:33;;;;;;;5.87;4.07;;;10.00;98.70;;;;;;5052304;28;20540;-68
2021/10/22 07:28:06;;;;;;;7.87;3.83;;;10.00;99.00;;;;;;5052916;28;20411;-68
2021/10/22 07:30:33;;;;;;;9.73;4.10;;;10.10;98.70;;;;;;5031126;28;20798;-68
2021/10/22 07:32:58;;;;;;;9.27;4.33;;;10.10;99.30;;;;;;5032845;28;20930;-67
2021/10/22 07:35:25;;;;;;;9.93;3.67;;;10.20;99.90;;;;;;5032183;28;20407;-69
2021/10/22 07:37:51;;;;;;;4.50;4.10;;;10.20;99.20;;;;;;5048302;28;20171;-68
2021/10/22 07:40:17;;;;;;;7.00;4.07;;;10.20;98.70;;;;;;5052152;28;20439;-68
2021/10/22 07:42:43;;;;;;;5.67;3.97;;;10.20;98.30;;;;;;5051078;28;20185;-68
2021/10/22 07:45:09;;;;;;;6.30;4.40;;;10.30;98.90;;;;;;5052648;28;20857;-67
2021/10/22 07:47:36;;;;;;;5.47;4.20;;;10.30;98.80;;;;;;5051703;28;20185;-68
2021/10/22 07:50:05;;;;;;;8.43;4.50;;;10.30;99.20;;;;;;5052447;28;20396;-68
2021/10/22 07:52:32;;;;;;;8.73;4.70;;;10.30;98.60;;;;;;5051925;28;20415;-68
2021/10/22 07:54:59;;;;;;;7.60;4.10;;;10.30;99.10;;;;;;5052159;28;20471;-68
2021/10/22 07:57:26;;;;;;;4.83;4.30;;;10.30;99.60;;;;;;5052201;28;20730;-70
2021/10/22 07:59:52;;;;;;;5.93;4.47;;;10.40;99.40;;;;;;5052490;28;20839;-67
2021/10/22 08:02:19;;;;;;;3.77;3.47;;;10.40;99.10;;;;;;5052388;28;20412;-67
2021/10/22 08:04:46;;;;;;;6.27;4.13;;;10.40;99.60;;;;;;5051711;28;20415;-67
2021/10/22 08:07:12;;;;;;;5.50;3.47;;;10.50;99.40;;;;;;5052709;28;20406;-67
2021/10/22 08:09:40;;;;;;;7.37;2.90;;;10.50;98.60;;;;;;5054410;28;20409;-68
2021/10/22 08:12:06;;;;;;;5.10;3.30;;;10.60;98.90;;;;;;5056403;28;20811;-68
2021/10/22 08:14:32;;;;;;;7.83;4.40;;;10.70;98.60;;;;;;5055535;28;20417;-69
2021/10/22 08:16:59;;;;;;;10.00;3.60;;;10.80;98.20;;;;;;5055356;28;20447;-68
2021/10/22 08:19:26;;;;;;;9.70;3.30;;;10.80;98.30;;;;;;5056422;28;20183;-68
2021/10/22 08:22:26;;;;;;;4.90;3.57;;;10.90;99.40;;;;;;5056004;28;20499;-68
2021/10/22 08:24:45;;;;;;;5.33;3.20;;;10.90;99.20;;;;;;5055451;28;20462;-68
2021/10/22 08:27:11;;;;;;;6.50;3.40;;;11.00;98.70;;;;;;5056252;28;20478;-68
2021/10/22 08:29:36;;;;;;;5.60;3.33;;;10.90;99.90;;;;;;5054400;28;20411;-68
2021/10/22 08:32:02;;;;;;;4.23;3.70;;;10.90;99.90;;;;;;5056042;28;20205;-68
2021/10/22 08:34:29;;;;;;;5.10;3.20;;;10.90;99.70;;;;;;5055474;28;20420;-69
2021/10/22 08:36:55;;;;;;;8.07;3.67;;;11.00;99.60;;;;;;5056029;28;20759;-68
2021/10/22 08:39:21;;;;;;;4.67;4.00;;;11.00;99.50;;;;;;5056076;28;20413;-68
2021/10/22 08:41:47;;;;;;;9.50;3.53;;;11.10;98.70;;;;;;5054192;28;20397;-68
2021/10/22 08:44:14;;;;;;;7.23;3.27;;;11.10;98.60;;;;;;5055319;28;20463;-68
2021/10/22 08:46:41;;;;;;;3.07;2.77;;;11.10;98.90;;;;;;5055283;28;20412;-68
2021/10/22 08:49:12;;;;;;;4.40;3.00;;;11.20;98.60;;;;;;5055893;28;20787;-68
2021/10/22 08:51:39;;;;;;;7.00;3.53;;;11.20;99.30;;;;;;5055050;28;20451;-69
2021/10/22 08:54:05;;;;;;;4.70;3.40;;;11.20;99.40;;;;;;5055463;28;20412;-68
2021/10/22 08:56:30;;;;;;;6.60;3.53;;;11.20;99.40;;;;;;5055085;28;20457;-68
2021/10/22 08:58:56;;;;;;;6.60;3.20;;;11.20;98.70;;;;;;5055635;28;20183;-68
2021/10/22 09:01:22;;;;;;;7.83;3.60;;;11.20;99.00;;;;;;5055448;28;20185;-68
2021/10/22 09:03:47;;;;;;;5.77;2.60;;;11.20;98.30;;;;;;5054735;28;20181;-68
2021/10/22 09:06:14;;;;;;;5.87;3.07;;;11.10;98.70;;;;;;5055397;28;20223;-68
2021/10/22 09:08:45;;;;;;;7.07;3.63;;;11.10;99.30;;;;;;5053437;28;20196;-68
2021/10/22 09:11:32;;;;;;;6.83;3.53;;;11.10;99.00;;;;;;5055401;28;20894;-68
2021/10/22 09:14:05;;;;;;;5.50;3.23;;;11.20;99.50;;;;;;5055633;28;20522;-68
2021/10/22 09:16:31;;;;;;;3.73;2.90;;;11.20;98.60;;;;;;5054674;28;20422;-69
2021/10/22 09:18:59;;;;;;;4.27;3.53;;;11.20;98.50;;;;;;5055258;28;20504;-68
2021/10/22 09:21:30;;;;;;;4.67;3.60;;;11.20;98.90;;;;;;5053755;28;20915;-68
2021/10/22 09:24:15;;;;;;;3.57;3.27;;;11.20;99.20;;;;;;5054288;28;20579;-68
2021/10/22 09:26:48;;;;;;;3.67;3.33;;;11.30;99.10;;;;;;5054181;28;20943;-68
2021/10/22 09:29:23;;;;;;;6.07;3.00;;;11.30;99.00;;;;;;5055293;28;20395;-68
2021/10/22 09:31:52;;;;;;;3.97;3.57;;;11.30;99.10;;;;;;5054355;28;20439;-68
2021/10/22 09:34:37;;;;;;;4.97;3.33;;;11.30;98.80;;;;;;5054917;28;20408;-68
2021/10/22 09:37:12;;;;;;;4.47;2.70;;;11.40;99.90;;;;;;5054771;28;20768;-68
2021/10/22 09:39:39;;;;;;;3.83;3.37;;;11.50;99.90;;;;;;5054434;28;20406;-68
2021/10/22 09:42:18;;;;;;;8.93;3.20;;;11.60;99.10;;;;;;5054832;28;20418;-68
2021/10/22 09:44:46;;;;;;;5.23;2.73;;;11.60;99.50;;;;;;5054013;28;20460;-68
2021/10/22 09:47:18;;;;;;;6.50;3.43;;;11.60;98.50;;;;;;5054721;28;20408;-68
2021/10/22 09:49:50;;;;;;;9.50;2.80;;;11.70;98.80;;;;;;5054177;28;20393;-68
2021/10/22 09:52:17;;;;;;;5.40;3.13;;;11.70;98.30;;;;;;5054602;28;20540;-68
2021/10/22 09:54:42;;;;;;;7.00;4.47;;;11.80;99.30;;;;;;5053738;28;20507;-68
2021/10/22 09:57:08;;;;;;;5.23;3.50;;;11.80;98.70;;;;;;5054919;28;20484;-68
2021/10/22 09:59:36;;;;;;;5.13;3.53;;;11.80;98.70;;;;;;5053859;28;20408;-69
2021/10/22 10:02:06;;;;;;;3.20;2.90;;;11.80;98.40;;;;;;5053275;28;20191;-68
2021/10/22 10:04:32;;;;;;;6.63;3.30;;;11.80;98.70;;;;;;5054090;28;20468;-72
2021/10/22 10:07:00;;;;;;;3.87;2.50;;;11.80;98.20;;;;;;5054361;28;20408;-68
2021/10/22 10:09:27;;;;;;;5.30;3.30;;;11.80;99.30;;;;;;5054377;28;20890;-68
2021/10/22 10:11:55;;;;;;;4.87;3.80;;;12.10;98.70;;;;;;5053594;28;20544;-68
2021/10/22 10:14:31;;;;;;;5.53;3.13;;;12.30;98.50;;;;;;5053047;28;20427;-68
2021/10/22 10:17:02;;;;;;;5.40;3.00;;;12.80;98.00;;;;;;5053487;28;20402;-68
2021/10/22 10:19:28;;;;;;;3.60;3.20;;;13.00;96.60;;;;;;5054081;28;20398;-68
2021/10/22 10:22:00;;;;;;;6.43;2.90;;;13.20;96.30;;;;;;5053472;28;20898;-68
2021/10/22 10:24:33;;;;;;;3.70;2.90;;;13.40;95.70;;;;;;5054048;28;20465;-68
2021/10/22 10:27:12;;;;;;;6.73;3.43;;;13.30;95.70;;;;;;5054103;28;20879;-68
2021/10/22 10:29:58;;;;;;;4.30;3.00;;;13.40;96.10;;;;;;5053679;28;20449;-68
2021/10/22 10:32:27;;;;;;;5.67;3.60;;;13.50;95.50;;;;;;5053898;28;20523;-68
2021/10/22 10:34:54;;;;;;;5.53;2.90;;;13.50;95.30;;;;;;5053153;28;20411;-68
2021/10/22 10:37:38;;;;;;;3.73;3.20;;;13.50;95.00;;;;;;5053469;28;20450;-68
2021/10/22 10:40:06;;;;;;;9.30;3.63;;;13.70;95.10;;;;;;5053803;28;20418;-68
2021/10/22 10:42:33;;;;;;;4.80;3.67;;;13.90;94.00;;;;;;5052551;28;20416;-68
2021/10/22 10:45:03;;;;;;;4.83;3.37;;;14.10;93.70;;;;;;5052934;28;21058;-68
2021/10/22 10:47:33;;;;;;;6.73;3.60;;;14.30;94.10;;;;;;5052528;28;20437;-68
2021/10/22 10:50:03;;;;;;;3.63;3.07;;;14.70;93.90;;;;;;5052884;28;20394;-68
2021/10/22 10:52:39;;;;;;;5.13;2.97;;;14.90;93.10;;;;;;5053637;28;20454;-68
2021/10/22 10:55:31;;;;;;;7.17;3.90;;;15.20;93.30;;;;;;5052421;28;20933;-68
2021/10/22 10:58:01;;;;;;;5.00;4.50;;;15.40;91.60;;;;;;5052580;28;20755;-68
2021/10/22 11:00:33;;;;;;;3.93;3.53;;;15.40;91.90;;;;;;5053091;28;20426;-68
2021/10/22 11:03:02;;;;;;;3.20;2.90;;;15.50;91.10;;;;;;5052086;28;20449;-68
2021/10/22 11:05:43;;;;;;;5.67;3.87;;;15.50;90.80;;;;;;5053099;28;20446;-68
2021/10/22 11:08:33;;;;;;;4.73;3.20;;;15.50;91.20;;;;;;5063174;28;20426;-68
2021/10/22 11:11:27;;;;;;;3.07;2.87;;;15.30;90.20;;;;;;5052768;28;20516;-68
2021/10/22 11:14:04;;;;;;;4.70;2.90;;;15.20;91.10;;;;;;5051688;28;20451;-68
2021/10/22 11:16:39;;;;;;;2.73;2.53;;;15.00;91.00;;;;;;5052907;28;20504;-68
2021/10/22 11:19:18;;;;;;;3.63;3.30;;;14.80;91.40;;;;;;5053105;28;20396;-68
2021/10/22 11:21:49;;;;;;;7.37;3.80;;;14.50;91.40;;;;;;5052047;28;20460;-68
2021/10/22 11:24:21;;;;;;;3.20;3.00;;;14.40;92.10;;;;;;5052977;28;20963;-68
2021/10/22 11:27:07;;;;;;;4.23;3.93;;;14.30;92.50;;;;;;5052678;28;20423;-68
2021/10/22 11:29:42;;;;;;;4.07;3.27;;;14.20;92.30;;;;;;5053123;28;20404;-68
2021/10/22 11:32:10;;;;;;;6.60;3.10;;;14.10;92.80;;;;;;5052257;28;20923;-68
2021/10/22 11:34:39;;;;;;;6.60;2.70;;;14.10;92.50;;;;;;5051892;28;20462;-68
2021/10/22 11:37:14;;;;;;;4.93;2.90;;;14.00;92.70;;;;;;5051507;28;20419;-68
2021/10/22 11:39:46;;;;;;;7.67;3.00;;;13.90;92.80;;;;;;5052150;28;20403;-68
2021/10/22 11:42:29;;;;;;;6.23;3.00;;;13.80;92.80;;;;;;5052672;28;20472;-68
2021/10/22 11:45:09;;;;;;;3.90;3.00;;;13.70;93.30;;;;;;5050158;28;20478;-69
2021/10/22 11:47:39;;;;;;;3.67;3.00;;;13.70;96.50;;;;;;5047197;28;20415;-67
2021/10/22 11:50:22;;;;;;;3.63;2.43;;;13.70;93.70;;;;;;5047782;28;20490;-67
2021/10/22 11:53:10;;;;;;;8.60;3.40;;;13.60;93.90;;;;;;5051309;28;20738;-67
2021/10/22 11:55:37;;;;;;;4.70;3.20;;;13.50;93.90;;;;;;5047959;28;20800;-67
2021/10/22 11:58:08;;;;;;;4.10;2.70;;;13.50;93.90;;;;;;5045001;28;20466;-67
2021/10/22 12:00:34;;;;;;;6.50;2.63;;;13.50;93.60;;;;;;5051700;28;20445;-67
2021/10/22 12:03:00;;;;;;;4.33;2.90;;;13.50;93.80;;;;;;5051209;28;20481;-67
2021/10/22 12:05:27;;;;;;;3.47;3.20;;;13.60;94.30;;;;;;5050074;28;20490;-67
2021/10/22 12:07:58;;;;;;;5.20;3.53;;;13.50;94.20;;;;;;5049867;28;20263;-67
2021/10/22 12:10:27;;;;;;;11.47;3.17;;;13.40;93.90;;;;;;5052051;28;20450;-67
2021/10/22 12:12:54;;;;;;;4.10;2.70;;;13.30;94.50;;;;;;5049909;28;20427;-67
2021/10/22 12:15:27;;;;;;;6.93;2.83;;;13.30;94.50;;;;;;5051686;28;20784;-69
2021/10/22 12:17:54;;;;;;;3.80;2.60;;;13.30;95.10;;;;;;5041794;28;20423;-67
2021/10/22 12:20:20;;;;;;;6.93;4.17;;;13.20;94.60;;;;;;5050990;28;20434;-67
2021/10/22 12:22:54;;;;;;;3.67;3.37;;;13.20;94.90;;;;;;5048425;28;20442;-67
2021/10/22 12:25:21;;;;;;;3.83;2.70;;;13.10;95.00;;;;;;5050673;28;20400;-67
2021/10/22 12:27:52;;;;;;;4.30;2.60;;;13.10;95.10;;;;;;5050110;28;20424;-67
2021/10/22 12:30:23;;;;;;;5.40;3.10;;;13.10;95.20;;;;;;5050131;28;20870;-67
2021/10/22 12:32:51;;;;;;;3.57;2.93;;;13.00;95.20;;;;;;5050212;28;20423;-68
2021/10/22 12:35:45;;;;;;;5.93;2.83;;;13.00;95.30;;;;;;5040118;28;20472;-67
2021/10/22 12:38:19;;;;;;;7.60;3.43;;;13.10;95.60;;;;;;5048271;28;20434;-67
2021/10/22 12:40:51;;;;;;;3.93;2.50;;;13.10;96.30;;;;;;5049503;28;20602;-68
2021/10/22 12:43:30;;;;;;;2.90;2.57;;;13.10;96.60;;;;;;5050237;28;20834;-69
2021/10/22 12:46:08;;;;;;;3.03;2.83;;;13.10;96.80;;;;;;5049798;28;20512;-67
2021/10/22 12:48:48;;;;;;;3.80;2.80;;;13.20;97.00;;;;;;5050990;28;20792;-67
2021/10/22 12:51:25;;;;;;;4.63;3.00;;;13.20;97.00;;;;;;5048941;28;20983;-67
2021/10/22 12:53:58;;;;;;;4.13;3.40;;;13.10;96.80;;;;;;5049568;28;20508;-67
2021/10/22 12:56:29;;;;;;;4.73;3.47;;;13.10;97.00;;;;;;5052345;28;20769;-67
2021/10/22 12:59:02;;;;;;;4.30;3.50;;;13.10;97.60;;;;;;5053011;28;20410;-67